Map

Track Data

SID SEASON NUMBER BASIN SUBBASIN NAME ISO_TIME NATURE LAT LON WMO_WIND WMO_PRES WMO_AGENCY TRACK_TYPE DIST2LAND LANDFALL IFLAG USA_AGENCY USA_ATCF_ID USA_LAT USA_LON USA_RECORD USA_STATUS USA_WIND USA_PRES USA_SSHS USA_R34_NE USA_R34_SE USA_R34_SW USA_R34_NW USA_R50_NE USA_R50_SE USA_R50_SW USA_R50_NW USA_R64_NE USA_R64_SE USA_R64_SW USA_R64_NW USA_POCI USA_ROCI USA_RMW USA_EYE TOKYO_LAT TOKYO_LON TOKYO_GRADE TOKYO_WIND TOKYO_PRES TOKYO_R50_DIR TOKYO_R50_LONG TOKYO_R50_SHORT TOKYO_R30_DIR TOKYO_R30_LONG TOKYO_R30_SHORT TOKYO_LAND CMA_LAT CMA_LON CMA_CAT CMA_WIND CMA_PRES HKO_LAT HKO_LON HKO_CAT HKO_WIND HKO_PRES NEWDELHI_LAT NEWDELHI_LON NEWDELHI_GRADE NEWDELHI_WIND NEWDELHI_PRES NEWDELHI_CI NEWDELHI_DP NEWDELHI_POCI REUNION_LAT REUNION_LON REUNION_TYPE REUNION_WIND REUNION_PRES REUNION_TNUM REUNION_CI REUNION_RMW REUNION_R34_NE REUNION_R34_SE REUNION_R34_SW REUNION_R34_NW REUNION_R50_NE REUNION_R50_SE REUNION_R50_SW REUNION_R50_NW REUNION_R64_NE REUNION_R64_SE REUNION_R64_SW REUNION_R64_NW BOM_LAT BOM_LON BOM_TYPE BOM_WIND BOM_PRES BOM_TNUM BOM_CI BOM_RMW BOM_R34_NE BOM_R34_SE BOM_R34_SW BOM_R34_NW BOM_R50_NE BOM_R50_SE BOM_R50_SW BOM_R50_NW BOM_R64_NE BOM_R64_SE BOM_R64_SW BOM_R64_NW BOM_ROCI BOM_POCI BOM_EYE BOM_POS_METHOD BOM_PRES_METHOD NADI_LAT NADI_LON NADI_CAT NADI_WIND NADI_PRES WELLINGTON_LAT WELLINGTON_LON WELLINGTON_WIND WELLINGTON_PRES DS824_LAT DS824_LON DS824_STAGE DS824_WIND DS824_PRES TD9636_LAT TD9636_LON TD9636_STAGE TD9636_WIND TD9636_PRES TD9635_LAT TD9635_LON TD9635_WIND TD9635_PRES TD9635_ROCI NEUMANN_LAT NEUMANN_LON NEUMANN_CLASS NEUMANN_WIND NEUMANN_PRES MLC_LAT MLC_LON MLC_CLASS MLC_WIND MLC_PRES USA_GUST BOM_GUST BOM_GUST_PER REUNION_GUST REUNION_GUST_PER USA_SEAHGT USA_SEARAD_NE USA_SEARAD_SE USA_SEARAD_SW USA_SEARAD_NW STORM_SPEED STORM_DIR
1875060S17448 1875 6 SI MM NOT_NAMED 1875-02-28 18:00:00 NR -17.3000 87.8000 main 2127 2127 __________O___ -1 -17.3000 87.8000 7 2 224
1875060S17448 1875 6 SI MM NOT_NAMED 1875-02-28 21:00:00 NR -17.3570 87.7347 main 2142 2142 __________P___ -1 -17.3570 87.7347 7 2 228
1875060S17448 1875 6 SI MM NOT_NAMED 1875-03-01 00:00:00 NR -17.4512 87.6256 main 2158 2158 __________P___ -1 -17.4512 87.6256 7 4 228
1875060S17448 1875 6 SI MM NOT_NAMED 1875-03-01 03:00:00 NR -17.6199 87.4288 main 2179 2179 __________P___ -1 -17.6199 87.4288 7 7 228
1875060S17448 1875 6 SI MM NOT_NAMED 1875-03-01 06:00:00 NR -17.9000 87.1000 main 2225 2225 __________O___ -1 -17.9000 87.1000 7 10 228
1875060S17448 1875 6 SI MM NOT_NAMED 1875-03-01 09:00:00 NR -18.3161 86.6131 main 2293 2293 __________P___ -1 -18.3161 86.6131 7 14 227
1875060S17448 1875 6 SI MM NOT_NAMED 1875-03-01 12:00:00 NR -18.8446 86.0196 main 2376 2376 __________P___ -1 -18.8446 86.0196 7 16 226
1875060S17448 1875 6 SI MM NOT_NAMED 1875-03-01 15:00:00 NR -19.4505 85.3910 main 2476 2476 __________P___ -1 -19.4505 85.3910 7 17 222
1875060S17448 1875 6 SI MM NOT_NAMED 1875-03-01 18:00:00 NR -20.1000 84.8000 main 2568 2568 __________O___ -1 -20.1000 84.8000 7 17 218
1875060S17448 1875 6 SI MM NOT_NAMED 1875-03-01 21:00:00 NR -20.7670 84.3094 main 2661 2661 __________P___ -1 -20.7670 84.3094 7 16 212
1875060S17448 1875 6 SI MM NOT_NAMED 1875-03-02 00:00:00 NR -21.4645 83.8733 main 2710 2668 __________P___ -1 -21.4645 83.8733 7 16 208
1875060S17448 1875 6 SI MM NOT_NAMED 1875-03-02 03:00:00 NR -22.1548 83.5003 main 2668 2637 __________P___ -1 -22.1548 83.5003 7 15 205
1875060S17448 1875 6 SI MM NOT_NAMED 1875-03-02 06:00:00 NR -22.8000 83.2000 main 2637 2618 __________O___ -1 -22.8000 83.2000 7 13 202
1875060S17448 1875 6 SI MM NOT_NAMED 1875-03-02 09:00:00 NR -23.3496 82.9641 main 2619 2601 __________P___ -1 -23.3496 82.9641 7 11 199
1875060S17448 1875 6 SI MM NOT_NAMED 1875-03-02 12:00:00 NR -23.8517 82.8003 main 2602 2594 __________P___ -1 -23.8517 82.8003 7 10 194
1875060S17448 1875 6 SI MM NOT_NAMED 1875-03-02 15:00:00 NR -24.3280 82.6865 main 2595 2587 __________P___ -1 -24.3280 82.6865 7 10 191
1875060S17448 1875 6 SI MM NOT_NAMED 1875-03-02 18:00:00 NR -24.8000 82.6000 main 2591 2584 __________O___ -1 -24.8000 82.6000 7 10 189
1875060S17448 1875 6 SI MM NOT_NAMED 1875-03-02 21:00:00 NR -25.2850 82.5215 main 2587 2587 __________P___ -1 -25.2850 82.5215 7 10 188
1875060S17448 1875 6 SI MM NOT_NAMED 1875-03-03 00:00:00 NR -25.7829 82.4462 main 2585 2585 __________P___ -1 -25.7829 82.4462 7 10 187
1875060S17448 1875 6 SI MM NOT_NAMED 1875-03-03 03:00:00 NR -26.2893 82.3728 main 2594 2588 __________P___ -1 -26.2893 82.3728 7 10 187
1875060S17448 1875 6 SI MM NOT_NAMED 1875-03-03 06:00:00 NR -26.8000 82.3000 main 2594 __________O___ -1 -26.8000 82.3000 7 10 188

About IBTrACS Database

This database is a web-friendly format of International Best Track Archive for Climate Stewardship (IBTrACS), a global best track data archive curated by NOAA dating back to 1842.

Updated: 2021-12-01